Time;durP1;ratioP1;P1;durP2;ratioP2;P2;SDS_P1;SDS_P2;PMS_P1;PMS_P2;Temp;Humidity;BMP_temperature;BMP_pressure;BME280_temperature;BME280_humidity;BME280_pressure;Samples;Min_cycle;Max_cycle;Signal;HPM_P1;HPM_P2
2020/12/30 00:01:06;;;;;;;13.13;6.12;;;;;;;3.09;78.33;98945.06;4424738;32;20041;-73
2020/12/30 00:03:34;;;;;;;13.00;6.15;;;;;;;3.08;78.19;98946.28;4424513;32;20155;-73
2020/12/30 00:06:00;;;;;;;15.57;6.47;;;;;;;3.09;77.98;98937.50;4423051;32;20063;-73
2020/12/30 00:08:26;;;;;;;11.43;5.37;;;;;;;3.07;77.88;98951.03;4421878;32;20046;-73
2020/12/30 00:10:51;;;;;;;10.18;4.87;;;;;;;3.08;77.90;98946.28;4426277;32;20070;-73
2020/12/30 00:13:18;;;;;;;9.95;4.93;;;;;;;3.04;77.85;98945.59;4423909;32;20042;-73
2020/12/30 00:15:44;;;;;;;12.35;4.70;;;;;;;3.04;77.87;98940.03;4426100;32;20081;-73
2020/12/30 00:18:10;;;;;;;9.82;4.60;;;;;;;3.07;77.38;98950.28;4420170;32;20563;-73
2020/12/30 00:20:36;;;;;;;11.48;5.10;;;;;;;3.06;77.59;98940.34;4422119;32;20113;-73
2020/12/30 00:23:01;;;;;;;11.30;4.57;;;;;;;3.05;77.68;98947.94;4425411;32;20073;-73
2020/12/30 00:25:27;;;;;;;6.18;2.55;;;;;;;3.01;78.25;98952.00;4431717;32;20424;-73
2020/12/30 00:27:53;;;;;;;8.85;3.65;;;;;;;2.96;78.36;98944.97;4420270;32;20094;-73
2020/12/30 00:30:19;;;;;;;7.82;3.37;;;;;;;3.03;78.50;98944.78;4421578;32;20030;-73
2020/12/30 00:33:05;;;;;;;10.77;4.35;;;;;;;3.05;78.55;98941.59;4425925;32;20075;-73
2020/12/30 00:35:31;;;;;;;10.63;4.37;;;;;;;3.15;77.87;98948.87;4384843;32;20458;-74
2020/12/30 00:37:57;;;;;;;11.88;5.35;;;;;;;3.18;78.03;98945.25;4385664;32;20090;-74
2020/12/30 00:40:22;;;;;;;10.60;4.55;;;;;;;3.18;77.86;98946.03;4387509;32;20047;-73
2020/12/30 00:42:48;;;;;;;13.15;4.40;;;;;;;3.16;77.55;98940.13;4388294;32;20038;-77
2020/12/30 00:45:14;;;;;;;9.75;4.20;;;;;;;3.12;77.62;98944.19;4388382;32;20099;-75
2020/12/30 00:47:39;;;;;;;7.25;4.10;;;;;;;3.12;77.75;98944.19;4386832;32;20061;-76
2020/12/30 00:50:06;;;;;;;9.00;3.90;;;;;;;3.10;77.60;98944.63;4386888;32;20561;-74
2020/12/30 00:52:33;;;;;;;8.77;4.10;;;;;;;3.16;77.87;98944.91;4387635;32;20066;-73
2020/12/30 00:54:58;;;;;;;8.15;3.92;;;;;;;3.10;77.32;98941.84;4387305;32;20381;-75
2020/12/30 00:57:24;;;;;;;11.93;3.65;;;;;;;3.09;76.95;98939.50;4384011;32;20100;-73
2020/12/30 00:59:50;;;;;;;8.50;3.60;;;;;;;3.11;77.55;98940.66;4384608;32;20443;-75
2020/12/30 01:02:15;;;;;;;8.95;3.97;;;;;;;3.07;77.01;98942.72;4386132;32;20045;-77
2020/12/30 01:04:42;;;;;;;8.98;3.75;;;;;;;3.04;77.69;98931.69;4387360;32;20042;-73
2020/12/30 01:07:08;;;;;;;7.15;3.83;;;;;;;3.08;78.12;98947.06;4386838;32;20112;-75
2020/12/30 01:09:34;;;;;;;8.45;4.12;;;;;;;3.10;77.73;98941.09;4384621;32;20090;-73
2020/12/30 01:12:01;;;;;;;7.87;4.32;;;;;;;3.13;77.97;98949.31;4386866;32;20438;-74
2020/12/30 01:14:27;;;;;;;8.82;4.18;;;;;;;3.17;77.66;98949.25;4386212;32;20073;-77
2020/12/30 01:16:53;;;;;;;10.20;4.22;;;;;;;3.16;77.43;98953.25;4386884;32;20101;-74
2020/12/30 01:19:21;;;;;;;4.85;2.55;;;;;;;3.15;77.68;98954.44;4384394;32;20046;-75
2020/12/30 01:21:47;;;;;;;6.45;2.30;;;;;;;3.14;77.95;98950.09;4387044;32;20067;-77
2020/12/30 01:24:13;;;;;;;4.43;2.42;;;;;;;3.10;77.61;98950.19;4384580;32;20085;-74
2020/12/30 01:26:39;;;;;;;6.00;2.35;;;;;;;3.18;77.94;98950.81;4385776;32;20509;-74
2020/12/30 01:29:06;;;;;;;6.78;2.20;;;;;;;3.22;77.65;98949.50;4384888;32;20100;-77
2020/12/30 01:31:34;;;;;;;5.35;3.05;;;;;;;3.35;77.39;98955.94;4384553;32;20073;-76
2020/12/30 01:34:01;;;;;;;7.45;2.65;;;;;;;3.41;76.83;98964.56;4373836;32;20101;-76
2020/12/30 01:36:27;;;;;;;5.85;3.05;;;;;;;3.51;76.81;98966.31;4367834;32;20073;-76
2020/12/30 01:38:53;;;;;;;9.35;3.33;;;;;;;3.56;75.93;98966.56;4366738;32;20176;-75
2020/12/30 01:41:20;;;;;;;5.28;2.70;;;;;;;3.67;75.54;98964.31;4369409;32;20085;-74
2020/12/30 01:44:06;;;;;;;6.82;3.33;;;;;;;3.74;75.55;98966.91;4368612;32;20481;-74
2020/12/30 01:46:39;;;;;;;6.25;3.00;;;;;;;3.78;75.24;98962.03;4366157;32;20502;-76
2020/12/30 01:49:08;;;;;;;7.32;3.10;;;;;;;3.79;74.84;98965.59;4366474;32;20078;-73
2020/12/30 01:51:37;;;;;;;7.87;3.30;;;;;;;3.80;75.33;98973.50;4372019;32;20126;-76
2020/12/30 01:54:03;;;;;;;4.55;2.30;;;;;;;3.81;74.81;98963.94;4365323;32;20074;-76
2020/12/30 01:56:31;;;;;;;4.45;2.22;;;;;;;3.79;74.63;98971.16;4368881;32;20050;-74
2020/12/30 01:58:58;;;;;;;4.03;2.12;;;;;;;3.76;74.52;98980.37;4353914;32;20048;-76
2020/12/30 02:01:28;;;;;;;4.28;1.90;;;;;;;3.68;74.47;98984.53;4370906;32;20044;-74
2020/12/30 02:03:56;;;;;;;3.58;2.00;;;;;;;3.75;74.45;98987.19;4367037;32;20057;-74
2020/12/30 02:06:23;;;;;;;5.68;1.87;;;;;;;3.78;73.99;98973.16;4365021;32;20070;-73
2020/12/30 02:08:50;;;;;;;8.95;2.37;;;;;;;3.84;73.90;98973.44;4363676;32;20145;-75
2020/12/30 02:11:15;;;;;;;4.57;2.00;;;;;;;3.95;73.69;98980.28;4367050;32;20027;-74
2020/12/30 02:13:41;;;;;;;5.57;2.55;;;;;;;3.94;73.40;98986.28;4367459;32;20089;-77
2020/12/30 02:16:07;;;;;;;5.18;2.22;;;;;;;3.99;73.40;98989.31;4367990;32;20066;-73
2020/12/30 02:18:32;;;;;;;4.70;2.40;;;;;;;3.99;72.92;98989.31;4366166;32;20157;-75
2020/12/30 02:20:58;;;;;;;5.32;2.90;;;;;;;4.00;72.79;98992.88;4371974;32;20356;-76
2020/12/30 02:23:25;;;;;;;4.35;2.33;;;;;;;4.02;72.73;98987.69;4373021;32;20039;-76
2020/12/30 02:25:51;;;;;;;6.30;2.78;;;;;;;3.99;72.82;98994.13;4370938;32;20093;-76
2020/12/30 02:28:16;;;;;;;5.45;2.65;;;;;;;4.01;72.99;99000.00;4367655;32;20472;-74
2020/12/30 02:30:42;;;;;;;5.22;2.20;;;;;;;3.99;73.12;99008.03;4373065;32;20450;-76
2020/12/30 02:33:08;;;;;;;5.03;2.25;;;;;;;3.97;72.64;99002.91;4371462;32;20038;-76
2020/12/30 02:35:34;;;;;;;5.57;2.22;;;;;;;3.93;72.92;98998.66;4366780;32;20070;-75
2020/12/30 02:38:00;;;;;;;7.37;2.28;;;;;;;3.90;72.83;98999.53;4366129;32;20530;-76
2020/12/30 02:40:26;;;;;;;6.10;2.28;;;;;;;3.89;73.11;99000.72;4369339;32;20347;-75
2020/12/30 02:42:52;;;;;;;5.47;2.25;;;;;;;3.86;73.39;98998.81;4369465;32;20451;-75
2020/12/30 02:45:18;;;;;;;6.75;1.92;;;;;;;3.85;73.29;98997.25;4368998;32;20122;-77
2020/12/30 02:47:44;;;;;;;4.15;1.95;;;;;;;3.94;73.10;99001.00;4369182;32;20047;-75
2020/12/30 02:50:11;;;;;;;4.20;1.62;;;;;;;4.01;72.99;99009.16;4369202;32;20094;-74
2020/12/30 02:52:37;;;;;;;5.43;1.87;;;;;;;4.09;72.50;99001.41;4370951;32;20154;-75
2020/12/30 02:55:02;;;;;;;5.87;2.08;;;;;;;4.17;72.20;99000.00;4358488;32;20078;-75
2020/12/30 02:57:28;;;;;;;4.78;1.60;;;;;;;4.23;72.14;99006.59;4369693;32;20039;-76
2020/12/30 02:59:57;;;;;;;3.40;1.60;;;;;;;4.35;71.52;99010.69;4367548;32;20165;-74
2020/12/30 03:02:24;;;;;;;4.35;1.83;;;;;;;4.44;71.34;99010.81;4365512;32;20132;-75
2020/12/30 03:04:50;;;;;;;4.72;1.65;;;;;;;4.49;70.77;99010.28;4370246;32;20088;-76
2020/12/30 03:07:16;;;;;;;4.47;1.67;;;;;;;4.49;70.70;98999.94;4369908;32;21095;-74
2020/12/30 03:09:42;;;;;;;4.43;1.45;;;;;;;4.55;70.47;99009.31;4366986;32;20150;-77
2020/12/30 03:12:08;;;;;;;4.00;1.75;;;;;;;4.64;69.45;99001.09;4369514;32;20086;-76
2020/12/30 03:14:33;;;;;;;4.47;1.77;;;;;;;4.68;70.13;99012.13;4369794;32;20057;-76
2020/12/30 03:16:59;;;;;;;2.95;1.50;;;;;;;4.71;69.76;99005.69;4370458;32;20051;-74
2020/12/30 03:19:24;;;;;;;5.80;1.70;;;;;;;4.67;69.56;99010.56;4366386;32;20092;-75
2020/12/30 03:21:52;;;;;;;3.40;1.60;;;;;;;4.66;69.51;99020.94;4371317;32;20054;-75
2020/12/30 03:24:18;;;;;;;4.30;2.17;;;;;;;4.65;69.68;99008.22;4366632;32;20043;-74
2020/12/30 03:26:44;;;;;;;2.58;1.33;;;;;;;4.55;69.93;99012.09;4369618;32;20098;-76
2020/12/30 03:29:10;;;;;;;4.15;2.12;;;;;;;4.59;70.02;99014.78;4366594;32;20102;-76
2020/12/30 03:31:36;;;;;;;4.50;1.80;;;;;;;4.55;70.11;99014.88;4372150;32;20363;-73
2020/12/30 03:34:01;;;;;;;3.83;1.80;;;;;;;4.54;70.20;99013.31;4366277;32;20486;-74
2020/12/30 03:36:27;;;;;;;5.47;2.83;;;;;;;4.53;70.31;99017.31;4369082;32;20489;-75
2020/12/30 03:38:53;;;;;;;4.07;1.98;;;;;;;4.48;69.87;99011.50;4366047;32;20047;-74
2020/12/30 03:41:18;;;;;;;3.60;1.90;;;;;;;4.37;70.46;99022.12;4368876;32;20065;-73
2020/12/30 03:43:44;;;;;;;5.47;2.87;;;;;;;4.30;70.81;99019.56;4369425;32;20078;-74
2020/12/30 03:46:10;;;;;;;6.78;2.67;;;;;;;4.29;71.24;99026.34;4367439;32;20107;-74
2020/12/30 03:48:36;;;;;;;4.85;2.53;;;;;;;4.24;71.31;99024.09;4364227;32;20035;-76
2020/12/30 03:51:01;;;;;;;5.80;2.25;;;;;;;4.21;71.53;99027.75;4370140;32;20035;-76
2020/12/30 03:53:27;;;;;;;5.32;2.50;;;;;;;3.98;72.10;99031.50;4369363;32;20039;-76
2020/12/30 03:55:53;;;;;;;4.62;2.47;;;;;;;3.99;72.29;99028.28;4365964;32;20125;-76
2020/12/30 03:58:19;;;;;;;5.45;2.53;;;;;;;3.99;72.42;99025.50;4370360;32;20471;-75
2020/12/30 04:00:45;;;;;;;5.28;2.35;;;;;;;4.00;72.32;99031.84;4368798;32;20098;-75
2020/12/30 04:03:11;;;;;;;5.12;2.30;;;;;;;3.95;72.49;99029.59;4368574;32;20051;-74
2020/12/30 04:05:36;;;;;;;3.90;2.30;;;;;;;3.93;72.88;99040.37;4356669;32;20444;-75
2020/12/30 04:08:02;;;;;;;5.85;2.28;;;;;;;3.88;72.91;99038.91;4362431;32;20474;-76
2020/12/30 04:10:28;;;;;;;7.30;2.65;;;;;;;3.89;72.87;99036.88;4368199;32;20039;-74
2020/12/30 04:12:54;;;;;;;7.62;2.70;;;;;;;3.79;72.80;99035.94;4371098;32;20038;-73
2020/12/30 04:15:19;;;;;;;5.20;2.28;;;;;;;3.81;73.14;99039.06;4368164;32;20066;-76
2020/12/30 04:17:45;;;;;;;6.20;2.35;;;;;;;3.83;73.04;99028.28;4367216;32;20107;-74
2020/12/30 04:20:11;;;;;;;5.35;2.47;;;;;;;3.76;73.18;99030.47;4367462;32;20806;-73
2020/12/30 04:22:36;;;;;;;5.93;2.40;;;;;;;3.75;72.83;99032.44;4368493;32;20423;-76
2020/12/30 04:25:02;;;;;;;5.32;2.78;;;;;;;3.69;73.15;99031.41;4368721;32;20090;-76
2020/12/30 04:27:28;;;;;;;4.78;2.50;;;;;;;3.67;73.43;99024.72;4368421;32;20061;-76
2020/12/30 04:29:54;;;;;;;4.43;2.15;;;;;;;3.67;73.56;99021.94;4369713;32;20046;-76
2020/12/30 04:32:19;;;;;;;6.30;2.25;;;;;;;3.61;73.77;99026.44;4369900;32;20107;-74
2020/12/30 04:34:45;;;;;;;7.85;2.10;;;;;;;3.58;74.02;99022.53;4371103;32;20047;-75
2020/12/30 04:37:13;;;;;;;4.47;2.25;;;;;;;3.60;73.98;99022.91;4362358;32;20039;-74
2020/12/30 04:39:39;;;;;;;5.32;2.12;;;;;;;3.57;73.61;99023.75;4364940;32;20094;-75
2020/12/30 04:42:08;;;;;;;5.65;2.17;;;;;;;3.56;74.05;99024.19;4367232;32;20071;-74
2020/12/30 04:44:37;;;;;;;5.12;1.90;;;;;;;3.52;73.71;99023.47;4366768;32;20031;-75
2020/12/30 04:47:04;;;;;;;4.12;2.33;;;;;;;3.57;74.07;99029.31;4367415;32;20589;-73
2020/12/30 04:49:30;;;;;;;5.00;2.30;;;;;;;3.51;73.87;99025.50;4369835;32;20065;-74
2020/12/30 04:51:57;;;;;;;4.82;2.00;;;;;;;3.55;74.06;99023.41;4371447;32;20035;-76
2020/12/30 04:54:23;;;;;;;6.97;2.47;;;;;;;3.55;74.03;99022.62;4364586;32;20151;-76
2020/12/30 04:56:57;;;;;;;6.22;2.90;;;;;;;3.51;74.45;99019.94;4360754;32;20047;-76
2020/12/30 04:59:27;;;;;;;5.50;2.35;;;;;;;3.53;74.32;99022.28;4362709;32;20062;-75
2020/12/30 05:02:03;;;;;;;5.78;2.22;;;;;;;3.46;74.51;99023.22;4367874;32;20059;-75
2020/12/30 05:04:30;;;;;;;4.95;2.30;;;;;;;3.48;74.64;99025.56;4367417;32;20043;-75
2020/12/30 05:07:01;;;;;;;7.32;2.05;;;;;;;3.46;74.76;99028.78;4364474;32;20036;-75
2020/12/30 05:09:27;;;;;;;4.43;2.33;;;;;;;3.46;74.78;99022.41;4361362;32;20039;-74
2020/12/30 05:11:53;;;;;;;6.20;2.30;;;;;;;3.49;74.32;99027.13;4368272;32;20154;-76
2020/12/30 05:14:19;;;;;;;3.72;2.08;;;;;;;3.35;74.57;99033.00;4370843;32;20071;-76
2020/12/30 05:16:44;;;;;;;5.60;2.35;;;;;;;3.42;74.51;99032.84;4354946;32;20103;-74
2020/12/30 05:19:10;;;;;;;4.10;2.17;;;;;;;3.34;74.97;99040.56;4353407;32;20081;-73
2020/12/30 05:21:35;;;;;;;4.68;2.20;;;;;;;3.36;74.89;99037.34;4369831;32;20027;-76
2020/12/30 05:24:02;;;;;;;4.95;2.15;;;;;;;3.33;74.88;99025.13;4363724;32;20067;-76
2020/12/30 05:26:28;;;;;;;3.35;2.00;;;;;;;3.40;74.87;99047.19;4365588;32;20096;-73
2020/12/30 05:28:54;;;;;;;4.22;2.22;;;;;;;3.31;74.88;99051.75;4363970;32;20080;-73
2020/12/30 05:31:19;;;;;;;4.68;2.33;;;;;;;3.32;75.36;99058.91;4368579;32;20040;-76
2020/12/30 05:33:46;;;;;;;5.07;2.15;;;;;;;3.32;75.35;99056.13;4365243;32;20384;-76
2020/12/30 05:36:14;;;;;;;3.97;2.05;;;;;;;3.34;75.12;99060.03;4364983;32;20428;-74
2020/12/30 05:38:40;;;;;;;4.35;2.30;;;;;;;3.34;75.16;99051.69;4364652;32;20035;-77
2020/12/30 05:41:17;;;;;;;5.32;2.20;;;;;;;3.31;75.15;99054.53;4368634;32;20133;-76
2020/12/30 05:43:42;;;;;;;3.00;1.90;;;;;;;3.40;74.88;99055.53;4368537;32;20135;-75
2020/12/30 05:46:08;;;;;;;5.75;2.78;;;;;;;3.35;75.05;99067.12;4365408;32;20090;-76
2020/12/30 05:48:34;;;;;;;5.10;2.50;;;;;;;3.34;75.50;99059.22;4366203;32;20096;-75
2020/12/30 05:51:00;;;;;;;10.95;2.83;;;;;;;3.34;75.40;99062.00;4370648;32;20429;-76
2020/12/30 05:53:25;;;;;;;6.90;2.78;;;;;;;3.37;75.31;99061.94;4370368;32;20091;-75
2020/12/30 05:56:08;;;;;;;5.87;2.80;;;;;;;3.36;75.49;99054.03;4369931;32;20115;-74
2020/12/30 05:58:40;;;;;;;7.62;2.60;;;;;;;3.41;75.32;99068.19;4370329;32;20069;-73
2020/12/30 06:01:27;;;;;;;19.83;3.35;;;;;;;3.41;75.12;99065.41;4368623;32;20088;-73
2020/12/30 06:03:54;;;;;;;6.47;2.90;;;;;;;3.38;75.53;99066.28;4358884;32;20089;-76
2020/12/30 06:06:21;;;;;;;5.37;2.85;;;;;;;3.31;75.67;99069.22;4368635;32;20388;-75
2020/12/30 06:08:49;;;;;;;7.45;3.45;;;;;;;3.29;76.29;99066.13;4366711;32;20039;-76
2020/12/30 06:11:23;;;;;;;8.57;3.60;;;;;;;3.38;76.11;99069.06;4368927;32;20089;-73
2020/12/30 06:13:51;;;;;;;3.73;2.30;;;;;;;3.44;76.17;99067.34;4371085;32;20035;-76
2020/12/30 06:16:23;;;;;;;9.07;3.92;;;;;;;3.45;75.70;99082.84;4368847;32;20090;-74
2020/12/30 06:18:51;;;;;;;9.82;4.03;;;;;;;3.54;75.77;99076.66;4356813;32;20069;-74
2020/12/30 06:21:20;;;;;;;10.00;4.10;;;;;;;3.50;75.05;99076.75;4373538;32;20388;-77
2020/12/30 06:23:54;;;;;;;8.05;3.83;;;;;;;3.49;75.19;99083.53;4373212;32;20092;-75
2020/12/30 06:26:26;;;;;;;16.27;4.65;;;;;;;3.54;75.15;99085.81;4372772;32;20047;-76
2020/12/30 06:28:54;;;;;;;11.40;4.87;;;;;;;3.45;75.50;99082.84;4368609;32;20064;-75
2020/12/30 06:31:21;;;;;;;8.98;4.20;;;;;;;3.35;75.86;99075.47;4373396;32;20035;-74
2020/12/30 06:33:48;;;;;;;11.35;5.32;;;;;;;3.39;76.57;99075.41;4368616;32;20035;-75
2020/12/30 06:36:23;;;;;;;8.82;4.57;;;;;;;3.41;76.16;99081.34;4364869;32;20121;-76
2020/12/30 06:38:48;;;;;;;;;;;;;;;3.41;75.97;99087.66;4368696;32;20446;-76
2020/12/30 06:41:14;;;;;;;10.93;4.78;;;;;;;3.48;76.08;99087.53;4367170;32;19931;-76
2020/12/30 06:43:46;;;;;;;10.88;4.93;;;;;;;3.44;75.81;99083.25;4368079;32;20075;-74
2020/12/30 06:46:14;;;;;;;12.32;5.43;;;;;;;3.50;76.07;99084.31;4369380;32;20138;-73
2020/12/30 06:51:36;;;;;;;19.05;6.55;;;;;;;3.98;74.69;99092.72;3984309;32;15151940;-75
2020/12/30 06:54:03;;;;;;;15.63;6.65;;;;;;;3.98;74.69;99092.72;4443396;32;20128;-76
2020/12/30 06:59:16;;;;;;;15.93;6.50;;;;;;;4.00;74.60;99102.22;3983852;32;15022927;-72
2020/12/30 07:02:01;;;;;;;16.12;6.47;;;;;;;4.00;74.60;99102.22;4439802;32;20063;-75
2020/12/30 07:04:29;;;;;;;18.35;7.10;;;;;;;3.58;74.86;99107.97;4441786;32;20056;-76
2020/12/30 07:06:57;;;;;;;17.50;7.45;;;;;;;3.57;74.68;99109.97;4439939;32;20717;-74
2020/12/30 07:09:38;;;;;;;19.12;9.00;;;;;;;3.52;74.96;99104.13;4435756;32;20047;-75
2020/12/30 07:12:05;;;;;;;16.80;7.78;;;;;;;3.50;75.14;99098.22;4435917;32;20101;-74
2020/12/30 07:14:32;;;;;;;14.30;6.65;;;;;;;3.49;75.20;99105.78;4443042;32;20028;-75
2020/12/30 07:17:03;;;;;;;17.40;7.05;;;;;;;3.52;75.12;99115.25;4439164;32;20045;-72
2020/12/30 07:19:31;;;;;;;19.05;8.23;;;;;;;3.38;74.30;99119.09;4436987;32;20074;-74
2020/12/30 07:22:13;;;;;;;19.55;8.05;;;;;;;3.40;75.35;99127.81;4443374;32;20068;-74
2020/12/30 07:24:51;;;;;;;18.92;7.30;;;;;;;3.41;75.53;99123.03;4441226;32;20045;-75
2020/12/30 07:27:17;;;;;;;26.62;8.80;;;;;;;3.43;75.97;99123.38;4442843;32;20516;-73
2020/12/30 07:29:44;;;;;;;20.05;7.65;;;;;;;3.45;75.96;99126.53;4438810;32;20033;-73
2020/12/30 07:32:11;;;;;;;18.12;7.82;;;;;;;3.50;75.91;99135.13;4444055;32;20423;-75
2020/12/30 07:37:20;;;;;;;19.55;8.52;;;;;;;3.94;74.39;99133.78;3986932;32;15034159;-74
2020/12/30 07:39:47;;;;;;;20.20;7.95;;;;;;;3.94;74.39;99133.78;4438504;32;20142;-73
2020/12/30 07:42:15;;;;;;;16.35;8.25;;;;;;;3.50;75.15;99129.56;4444122;32;20108;-76
2020/12/30 07:47:21;;;;;;;29.47;7.17;;;;;;;3.54;75.80;99137.84;4001486;31;15018880;-73
2020/12/30 07:49:47;;;;;;;18.45;7.65;;;;;;;3.47;76.02;99132.44;4465829;32;20401;-74
2020/12/30 07:52:13;;;;;;;21.48;8.23;;;;;;;3.44;76.77;99138.88;4470489;32;20060;-76
2020/12/30 07:54:39;;;;;;;19.67;7.20;;;;;;;3.45;76.88;99141.22;4471684;32;20041;-75
2020/12/30 07:57:09;;;;;;;18.27;7.43;;;;;;;3.49;77.37;99141.91;4466021;32;20045;-75
2020/12/30 07:59:36;;;;;;;15.77;6.50;;;;;;;3.57;77.16;99140.56;4450815;32;20076;-73
2020/12/30 08:04:42;;;;;;;17.65;7.25;;;;;;;3.75;77.93;99156.88;3990978;32;15022656;-75
2020/12/30 08:07:09;;;;;;;24.70;7.22;;;;;;;3.78;77.64;99161.56;4442182;32;20090;-76
2020/12/30 08:09:37;;;;;;;16.15;6.30;;;;;;;3.87;77.63;99168.09;4439541;32;20087;-74
2020/12/30 08:12:06;;;;;;;15.43;6.03;;;;;;;3.93;77.15;99163.59;4442935;32;20056;-73
2020/12/30 08:14:36;;;;;;;15.98;6.68;;;;;;;4.02;77.18;99165.78;4443491;32;20064;-73
2020/12/30 08:17:06;;;;;;;16.08;5.82;;;;;;;4.14;76.37;99176.22;4442325;32;20146;-74
2020/12/30 08:24:50;;;;;;;18.55;7.18;;;;;;;4.38;74.83;99183.22;3987108;32;15026966;-75
2020/12/30 08:27:20;;;;;;;16.70;6.28;;;;;;;4.22;75.09;99176.84;4440251;32;20377;-75
2020/12/30 08:29:46;;;;;;;16.87;8.07;;;;;;;4.20;75.32;99177.28;4441881;32;20089;-74
2020/12/30 08:32:17;;;;;;;15.52;6.78;;;;;;;4.23;75.53;99181.97;4434331;32;20089;-74
2020/12/30 08:34:55;;;;;;;16.08;6.95;;;;;;;4.29;75.67;99182.25;4435412;32;20144;-74
2020/12/30 08:37:24;;;;;;;14.55;6.93;;;;;;;4.18;75.22;99179.72;4433383;32;20068;-73
2020/12/30 08:40:00;;;;;;;24.55;9.55;;;;;;;4.28;75.68;99187.03;4431090;32;20360;-73
2020/12/30 08:45:32;;;;;;;20.15;8.52;;;;;;;4.81;73.96;99208.81;3985723;32;15026974;-72
2020/12/30 08:50:43;;;;;;;17.15;8.70;;;;;;;4.89;73.46;99201.03;3977298;32;15024258;-74
2020/12/30 08:53:09;;;;;;;20.35;9.80;;;;;;;4.89;73.46;99201.03;4432582;32;20022;-73
2020/12/30 08:55:35;;;;;;;21.15;8.02;;;;;;;4.44;74.23;99208.53;4431398;32;20142;-74
2020/12/30 08:58:01;;;;;;;22.65;9.23;;;;;;;4.44;75.04;99200.19;4431209;32;20446;-73
2020/12/30 09:00:33;;;;;;;23.05;10.75;;;;;;;4.51;74.81;99208.37;4431072;32;20077;-76
2020/12/30 09:03:16;;;;;;;22.25;10.45;;;;;;;4.55;74.78;99200.72;4432431;32;20474;-75
2020/12/30 09:05:51;;;;;;;16.95;8.43;;;;;;;4.64;74.53;99200.87;4430814;32;20165;-74
2020/12/30 09:08:18;;;;;;;21.08;9.18;;;;;;;4.63;74.56;99205.66;4429624;32;20077;-73
2020/12/30 09:10:46;;;;;;;24.85;9.35;;;;;;;4.65;75.00;99211.59;4429283;32;20163;-73
2020/12/30 09:13:15;;;;;;;20.70;9.35;;;;;;;4.63;74.93;99205.66;4433469;32;20042;-75
2020/12/30 09:15:42;;;;;;;17.80;8.38;;;;;;;4.65;74.91;99208.81;4430110;32;20430;-76
2020/12/30 09:18:10;;;;;;;17.45;9.00;;;;;;;4.70;75.16;99213.88;4428480;32;20073;-73
2020/12/30 09:20:36;;;;;;;20.20;9.38;;;;;;;4.61;75.31;99205.34;4432137;32;20057;-74
2020/12/30 09:23:03;;;;;;;18.95;8.30;;;;;;;4.71;75.43;99209.06;4427888;32;20433;-73
2020/12/30 09:25:31;;;;;;;21.50;8.00;;;;;;;4.68;75.56;99213.53;4433002;32;20037;-73
2020/12/30 09:27:57;;;;;;;15.27;8.13;;;;;;;4.58;75.57;99220.16;4429164;32;20107;-74
2020/12/30 09:30:26;;;;;;;15.65;7.00;;;;;;;4.70;75.17;99205.50;4428302;32;20096;-75
2020/12/30 09:32:54;;;;;;;13.20;6.85;;;;;;;4.78;74.27;99220.81;4428941;32;20038;-73
2020/12/30 09:35:28;;;;;;;22.83;7.07;;;;;;;4.89;74.27;99214.97;4414780;32;20026;-73
2020/12/30 09:37:55;;;;;;;20.17;7.28;;;;;;;4.77;74.51;99210.91;4413942;32;20355;-74
2020/12/30 09:40:22;;;;;;;19.67;7.80;;;;;;;4.85;74.82;99206.69;4414584;32;20056;-75
2020/12/30 09:42:48;;;;;;;17.12;6.93;;;;;;;4.88;74.66;99216.22;4418057;32;20034;-73
2020/12/30 09:45:16;;;;;;;22.70;8.05;;;;;;;5.00;74.92;99209.94;4413934;32;20031;-75
2020/12/30 09:47:42;;;;;;;34.88;11.05;;;;;;;5.20;74.19;99210.56;4408434;32;20042;-75
2020/12/30 09:50:10;;;;;;;28.90;10.32;;;;;;;5.13;73.67;99203.19;4414232;32;20472;-76
2020/12/30 09:52:39;;;;;;;21.27;9.23;;;;;;;5.19;73.82;99201.41;4415127;32;20483;-73
2020/12/30 09:55:06;;;;;;;28.55;14.55;;;;;;;5.29;73.65;99205.94;4417153;32;20030;-75
2020/12/30 09:57:33;;;;;;;20.52;9.57;;;;;;;5.34;73.28;99210.19;4415466;32;20541;-75
2020/12/30 09:59:59;;;;;;;22.25;7.20;;;;;;;5.50;72.60;99202.53;4411427;32;20058;-74
2020/12/30 10:02:26;;;;;;;10.50;5.70;;;;;;;5.52;72.83;99214.06;4405339;32;20022;-75
2020/12/30 10:04:52;;;;;;;11.00;3.37;;;;;;;5.68;72.21;99211.19;4405086;32;20068;-75
2020/12/30 10:07:18;;;;;;;12.07;5.50;;;;;;;5.67;71.46;99208.84;4402248;32;20497;-74
2020/12/30 10:09:44;;;;;;;10.07;3.60;;;;;;;5.81;71.27;99217.66;4407152;32;20069;-72
2020/12/30 10:12:09;;;;;;;11.43;3.12;;;;;;;5.89;71.25;99212.59;4406331;32;20045;-73
2020/12/30 10:14:35;;;;;;;7.40;2.45;;;;;;;5.93;70.71;99213.31;4408989;32;20069;-73
2020/12/30 10:17:00;;;;;;;7.15;2.40;;;;;;;5.86;70.96;99213.53;4404647;32;20116;-74
2020/12/30 10:19:26;;;;;;;8.98;2.33;;;;;;;5.76;71.32;99208.97;4401395;32;20100;-73
2020/12/30 10:21:52;;;;;;;8.18;2.50;;;;;;;5.76;71.48;99220.94;4404952;32;20080;-75
2020/12/30 10:24:17;;;;;;;8.25;2.37;;;;;;;5.88;70.95;99223.00;4406872;32;20034;-74
2020/12/30 10:26:43;;;;;;;8.02;2.55;;;;;;;5.87;70.59;99223.44;4403836;32;20919;-75
2020/12/30 10:29:09;;;;;;;10.00;2.87;;;;;;;6.02;70.50;99228.16;4403119;32;20038;-76
2020/12/30 10:31:34;;;;;;;12.02;2.90;;;;;;;6.15;70.48;99228.19;4406485;32;20057;-73
2020/12/30 10:34:00;;;;;;;8.40;2.30;;;;;;;6.03;70.27;99226.94;4404615;32;20066;-75
2020/12/30 10:36:29;;;;;;;13.85;2.87;;;;;;;6.10;70.11;99229.53;4404484;32;20438;-74
2020/12/30 10:38:57;;;;;;;10.27;2.78;;;;;;;5.82;70.55;99221.19;4402142;32;20100;-76
2020/12/30 10:41:22;;;;;;;8.38;2.45;;;;;;;5.95;70.59;99225.59;4405740;32;20056;-73
2020/12/30 10:43:48;;;;;;;6.07;2.65;;;;;;;5.97;69.93;99231.50;4403932;32;20467;-75
2020/12/30 10:46:15;;;;;;;9.40;2.87;;;;;;;6.02;69.54;99235.78;4401797;32;20489;-75
2020/12/30 10:48:43;;;;;;;7.28;3.08;;;;;;;6.06;70.15;99226.06;4399065;32;20983;-76
2020/12/30 10:51:12;;;;;;;9.00;3.40;;;;;;;6.03;70.03;99231.75;4406515;32;20056;-72
2020/12/30 10:53:37;;;;;;;8.13;3.50;;;;;;;6.20;69.46;99226.84;4406083;32;20407;-72
2020/12/30 10:56:03;;;;;;;10.82;3.90;;;;;;;6.27;69.57;99229.41;4404831;32;20064;-74
2020/12/30 10:58:29;;;;;;;10.40;4.35;;;;;;;6.39;69.53;99221.06;4403173;32;20231;-75
2020/12/30 11:00:56;;;;;;;12.75;5.10;;;;;;;6.54;69.23;99218.59;4405709;32;20429;-76
2020/12/30 11:03:21;;;;;;;13.25;4.35;;;;;;;6.58;68.42;99222.84;4405272;32;20086;-73
2020/12/30 11:05:47;;;;;;;10.20;4.75;;;;;;;6.48;68.39;99220.38;4405627;32;20035;-74
2020/12/30 11:08:14;;;;;;;15.35;5.57;;;;;;;6.61;67.36;99219.16;4403306;32;20427;-75
2020/12/30 11:10:40;;;;;;;11.77;5.28;;;;;;;6.79;67.96;99213.75;4404989;32;20030;-77
2020/12/30 11:13:06;;;;;;;13.43;5.45;;;;;;;6.96;67.49;99222.78;4403983;32;20081;-73
2020/12/30 11:15:35;;;;;;;15.38;5.68;;;;;;;7.12;67.56;99217.81;4409021;32;20082;-75
2020/12/30 11:18:02;;;;;;;11.95;5.57;;;;;;;7.21;67.41;99228.31;4401660;32;20034;-73
2020/12/30 11:20:28;;;;;;;20.17;5.62;;;;;;;7.32;67.22;99223.13;4397793;32;20027;-76
2020/12/30 11:22:53;;;;;;;13.93;5.00;;;;;;;7.28;65.98;99228.06;4403708;32;20041;-76
2020/12/30 11:25:19;;;;;;;17.50;6.40;;;;;;;7.31;65.95;99227.16;4406533;32;20099;-76
2020/12/30 11:27:45;;;;;;;14.55;5.65;;;;;;;7.08;64.96;99227.53;4408589;32;20062;-75
2020/12/30 11:30:10;;;;;;;12.27;5.32;;;;;;;6.94;65.60;99220.44;4393877;32;20113;-74
2020/12/30 11:32:39;;;;;;;16.23;7.20;;;;;;;6.70;65.89;99219.25;4405662;32;20675;-74
2020/12/30 11:35:05;;;;;;;23.80;10.32;;;;;;;6.81;66.23;99230.84;4402959;32;20187;-75
2020/12/30 11:37:31;;;;;;;12.30;5.05;;;;;;;6.65;66.61;99230.19;4401471;32;20039;-73
2020/12/30 11:39:57;;;;;;;18.02;7.85;;;;;;;6.50;67.17;99229.88;4402243;32;20096;-76
2020/12/30 11:42:23;;;;;;;11.10;6.45;;;;;;;6.66;66.98;99223.37;4407747;32;20093;-74
2020/12/30 11:44:48;;;;;;;16.62;6.55;;;;;;;6.56;66.91;99224.53;4402015;32;20432;-75
2020/12/30 11:47:14;;;;;;;22.10;6.95;;;;;;;6.46;66.92;99222.81;4406807;32;20050;-74
2020/12/30 11:49:40;;;;;;;20.62;7.75;;;;;;;6.53;66.63;99219.81;4402154;32;20357;-73
2020/12/30 11:52:06;;;;;;;17.80;6.30;;;;;;;6.77;66.49;99221.81;4403755;32;20109;-76
2020/12/30 11:54:31;;;;;;;17.83;4.70;;;;;;;6.88;65.94;99213.84;4403880;32;20076;-75
2020/12/30 11:56:57;;;;;;;16.70;3.97;;;;;;;7.02;65.58;99223.75;4410176;32;20347;-73
2020/12/30 11:59:23;;;;;;;12.15;4.32;;;;;;;7.00;65.74;99217.84;4399679;32;20057;-73
2020/12/30 12:01:48;;;;;;;11.20;4.55;;;;;;;6.93;65.92;99229.28;4405956;32;20104;-75